sensor_id;sensor_type;location;lat;lon;timestamp;temperature;humidity
55329;DHT22;41205;44.264;19.884;2023-08-08T00:01:03;410.20;2355.20
55329;DHT22;41205;44.264;19.884;2023-08-08T00:03:29;410.20;2355.20
55329;DHT22;41205;44.264;19.884;2023-08-08T00:05:55;410.20;2355.20
55329;DHT22;41205;44.264;19.884;2023-08-08T00:08:21;410.20;2355.20
55329;DHT22;41205;44.264;19.884;2023-08-08T00:10:47;410.20;2355.20
55329;DHT22;41205;44.264;19.884;2023-08-08T00:13:12;410.10;2355.20
55329;DHT22;41205;44.264;19.884;2023-08-08T00:15:38;410.10;2355.20
55329;DHT22;41205;44.264;19.884;2023-08-08T00:18:04;410.10;2355.20
55329;DHT22;41205;44.264;19.884;2023-08-08T00:20:30;410.20;2355.20
55329;DHT22;41205;44.264;19.884;2023-08-08T00:22:55;410.20;2355.20
55329;DHT22;41205;44.264;19.884;2023-08-08T00:25:21;410.20;2355.20
55329;DHT22;41205;44.264;19.884;2023-08-08T00:27:50;410.20;2355.20
55329;DHT22;41205;44.264;19.884;2023-08-08T00:30:15;410.20;2355.20
55329;DHT22;41205;44.264;19.884;2023-08-08T00:32:41;410.30;2355.20
55329;DHT22;41205;44.264;19.884;2023-08-08T00:35:08;410.20;2355.20
55329;DHT22;41205;44.264;19.884;2023-08-08T00:37:34;410.30;2355.20
55329;DHT22;41205;44.264;19.884;2023-08-08T00:39:59;410.30;2355.20
55329;DHT22;41205;44.264;19.884;2023-08-08T00:42:25;410.30;2355.20
55329;DHT22;41205;44.264;19.884;2023-08-08T00:44:51;410.30;2355.20
55329;DHT22;41205;44.264;19.884;2023-08-08T00:47:16;410.30;2355.20
55329;DHT22;41205;44.264;19.884;2023-08-08T00:49:42;410.30;2355.20
55329;DHT22;41205;44.264;19.884;2023-08-08T00:52:12;410.30;2355.20
55329;DHT22;41205;44.264;19.884;2023-08-08T00:54:37;410.40;2355.20
55329;DHT22;41205;44.264;19.884;2023-08-08T00:57:03;410.40;2355.20
55329;DHT22;41205;44.264;19.884;2023-08-08T00:59:29;410.40;2355.20
55329;DHT22;41205;44.264;19.884;2023-08-08T01:01:57;410.50;2355.20
55329;DHT22;41205;44.264;19.884;2023-08-08T01:04:25;410.40;2355.20
55329;DHT22;41205;44.264;19.884;2023-08-08T01:07:01;410.40;2355.20
55329;DHT22;41205;44.264;19.884;2023-08-08T01:09:39;410.40;2355.20
55329;DHT22;41205;44.264;19.884;2023-08-08T01:12:08;410.30;2355.20
55329;DHT22;41205;44.264;19.884;2023-08-08T01:14:36;410.30;2355.20
55329;DHT22;41205;44.264;19.884;2023-08-08T01:17:02;410.30;2355.20
55329;DHT22;41205;44.264;19.884;2023-08-08T01:19:30;410.30;2355.20
55329;DHT22;41205;44.264;19.884;2023-08-08T01:22:01;410.30;2355.20
55329;DHT22;41205;44.264;19.884;2023-08-08T01:24:29;410.30;2355.20
55329;DHT22;41205;44.264;19.884;2023-08-08T01:26:59;410.40;2355.20
55329;DHT22;41205;44.264;19.884;2023-08-08T01:29:26;410.40;2355.20
55329;DHT22;41205;44.264;19.884;2023-08-08T01:31:52;410.40;2355.20
55329;DHT22;41205;44.264;19.884;2023-08-08T01:34:18;410.40;2355.20
55329;DHT22;41205;44.264;19.884;2023-08-08T01:36:55;410.40;2355.20
55329;DHT22;41205;44.264;19.884;2023-08-08T01:39:37;410.40;2355.20
55329;DHT22;41205;44.264;19.884;2023-08-08T01:42:04;410.50;2355.20
55329;DHT22;41205;44.264;19.884;2023-08-08T01:44:31;410.30;2355.20
55329;DHT22;41205;44.264;19.884;2023-08-08T01:46:58;410.20;2355.20
55329;DHT22;41205;44.264;19.884;2023-08-08T01:49:24;410.10;2355.20
55329;DHT22;41205;44.264;19.884;2023-08-08T01:51:49;410.20;2355.20
55329;DHT22;41205;44.264;19.884;2023-08-08T01:54:16;410.10;2355.20
55329;DHT22;41205;44.264;19.884;2023-08-08T01:56:42;410.00;2355.20
55329;DHT22;41205;44.264;19.884;2023-08-08T01:59:07;410.00;2355.20
55329;DHT22;41205;44.264;19.884;2023-08-08T02:01:33;410.00;2355.20
55329;DHT22;41205;44.264;19.884;2023-08-08T02:03:59;410.10;2355.20
55329;DHT22;41205;44.264;19.884;2023-08-08T02:06:24;410.10;2355.20
55329;DHT22;41205;44.264;19.884;2023-08-08T02:08:50;410.10;2355.20
55329;DHT22;41205;44.264;19.884;2023-08-08T02:11:16;410.10;2355.20
55329;DHT22;41205;44.264;19.884;2023-08-08T02:13:41;410.10;2355.20
55329;DHT22;41205;44.264;19.884;2023-08-08T02:16:07;410.20;2355.20
55329;DHT22;41205;44.264;19.884;2023-08-08T02:18:33;410.10;2355.20
55329;DHT22;41205;44.264;19.884;2023-08-08T02:20:58;410.10;2355.20
55329;DHT22;41205;44.264;19.884;2023-08-08T02:23:24;410.10;2355.20
55329;DHT22;41205;44.264;19.884;2023-08-08T02:25:51;410.10;2355.20
55329;DHT22;41205;44.264;19.884;2023-08-08T02:28:17;410.00;2355.20
55329;DHT22;41205;44.264;19.884;2023-08-08T02:30:43;410.00;2355.20
55329;DHT22;41205;44.264;19.884;2023-08-08T02:33:09;410.00;2355.20
55329;DHT22;41205;44.264;19.884;2023-08-08T02:35:36;409.90;2355.20
55329;DHT22;41205;44.264;19.884;2023-08-08T02:38:03;410.00;2355.20
55329;DHT22;41205;44.264;19.884;2023-08-08T02:40:29;410.00;2355.20
55329;DHT22;41205;44.264;19.884;2023-08-08T02:42:54;410.00;2355.20
55329;DHT22;41205;44.264;19.884;2023-08-08T02:45:20;410.00;2355.20
55329;DHT22;41205;44.264;19.884;2023-08-08T02:47:46;410.00;2355.20
55329;DHT22;41205;44.264;19.884;2023-08-08T02:50:11;410.10;2355.20
55329;DHT22;41205;44.264;19.884;2023-08-08T02:52:37;410.00;2355.20
55329;DHT22;41205;44.264;19.884;2023-08-08T02:55:03;410.00;2355.20
55329;DHT22;41205;44.264;19.884;2023-08-08T02:57:29;409.90;2355.20
55329;DHT22;41205;44.264;19.884;2023-08-08T02:59:54;409.90;2355.20
55329;DHT22;41205;44.264;19.884;2023-08-08T03:02:20;409.90;2355.20
55329;DHT22;41205;44.264;19.884;2023-08-08T03:04:46;409.90;2355.20
55329;DHT22;41205;44.264;19.884;2023-08-08T03:07:11;410.00;2355.20
55329;DHT22;41205;44.264;19.884;2023-08-08T03:09:37;409.90;2355.20
55329;DHT22;41205;44.264;19.884;2023-08-08T03:12:03;409.90;2355.20
55329;DHT22;41205;44.264;19.884;2023-08-08T03:14:29;409.90;2355.20
55329;DHT22;41205;44.264;19.884;2023-08-08T03:16:55;409.90;2355.20
55329;DHT22;41205;44.264;19.884;2023-08-08T03:19:22;409.90;2355.20
55329;DHT22;41205;44.264;19.884;2023-08-08T03:21:47;409.90;2355.20
55329;DHT22;41205;44.264;19.884;2023-08-08T03:24:13;410.00;2355.20
55329;DHT22;41205;44.264;19.884;2023-08-08T03:26:39;410.00;2355.20
55329;DHT22;41205;44.264;19.884;2023-08-08T03:29:04;410.00;2355.20
55329;DHT22;41205;44.264;19.884;2023-08-08T03:31:30;410.00;2355.20
55329;DHT22;41205;44.264;19.884;2023-08-08T03:33:56;410.00;2355.20
55329;DHT22;41205;44.264;19.884;2023-08-08T03:36:21;410.00;2355.20
55329;DHT22;41205;44.264;19.884;2023-08-08T03:38:47;409.90;2355.20
55329;DHT22;41205;44.264;19.884;2023-08-08T03:41:13;409.90;2355.20
55329;DHT22;41205;44.264;19.884;2023-08-08T03:43:39;409.90;2355.20
55329;DHT22;41205;44.264;19.884;2023-08-08T03:46:05;409.90;2355.20
55329;DHT22;41205;44.264;19.884;2023-08-08T03:48:31;409.90;2355.20
55329;DHT22;41205;44.264;19.884;2023-08-08T03:50:57;409.90;2355.20
55329;DHT22;41205;44.264;19.884;2023-08-08T03:53:23;409.90;2355.20
55329;DHT22;41205;44.264;19.884;2023-08-08T03:55:49;409.90;2355.20
55329;DHT22;41205;44.264;19.884;2023-08-08T03:58:14;409.90;2355.20
55329;DHT22;41205;44.264;19.884;2023-08-08T04:00:40;410.00;2355.20
55329;DHT22;41205;44.264;19.884;2023-08-08T04:03:13;410.00;2355.20
55329;DHT22;41205;44.264;19.884;2023-08-08T04:05:40;410.10;2355.20
55329;DHT22;41205;44.264;19.884;2023-08-08T04:08:05;410.20;2355.20
55329;DHT22;41205;44.264;19.884;2023-08-08T04:10:31;410.20;2355.20
55329;DHT22;41205;44.264;19.884;2023-08-08T04:12:57;410.40;2355.20
55329;DHT22;41205;44.264;19.884;2023-08-08T04:15:22;410.50;2355.20
55329;DHT22;41205;44.264;19.884;2023-08-08T04:17:48;410.50;2355.20
55329;DHT22;41205;44.264;19.884;2023-08-08T04:20:14;435.20;2355.20
55329;DHT22;41205;44.264;19.884;2023-08-08T04:22:40;435.20;2355.20
55329;DHT22;41205;44.264;19.884;2023-08-08T04:25:06;435.30;2355.20
55329;DHT22;41205;44.264;19.884;2023-08-08T04:27:32;435.30;2355.20
55329;DHT22;41205;44.264;19.884;2023-08-08T04:29:57;435.40;2355.20
55329;DHT22;41205;44.264;19.884;2023-08-08T04:32:23;435.50;2355.20
55329;DHT22;41205;44.264;19.884;2023-08-08T04:34:49;435.50;2355.20
55329;DHT22;41205;44.264;19.884;2023-08-08T04:37:15;435.60;2355.20
55329;DHT22;41205;44.264;19.884;2023-08-08T04:39:40;435.60;2355.20
55329;DHT22;41205;44.264;19.884;2023-08-08T04:42:06;435.60;2355.20
55329;DHT22;41205;44.264;19.884;2023-08-08T04:44:32;435.60;2355.20
55329;DHT22;41205;44.264;19.884;2023-08-08T04:46:57;435.70;2355.20
55329;DHT22;41205;44.264;19.884;2023-08-08T04:49:23;435.60;2355.20
55329;DHT22;41205;44.264;19.884;2023-08-08T04:51:49;435.60;2355.20
55329;DHT22;41205;44.264;19.884;2023-08-08T04:54:14;435.60;2355.20
55329;DHT22;41205;44.264;19.884;2023-08-08T04:56:40;435.70;2355.20
55329;DHT22;41205;44.264;19.884;2023-08-08T04:59:06;435.90;2355.20
55329;DHT22;41205;44.264;19.884;2023-08-08T05:01:31;435.90;2355.20
55329;DHT22;41205;44.264;19.884;2023-08-08T05:03:57;436.00;2355.20
55329;DHT22;41205;44.264;19.884;2023-08-08T05:06:22;436.00;2355.20
55329;DHT22;41205;44.264;19.884;2023-08-08T05:08:50;436.10;2355.20
55329;DHT22;41205;44.264;19.884;2023-08-08T05:11:16;461.10;2380.80
55329;DHT22;41205;44.264;19.884;2023-08-08T05:13:42;461.50;2380.80
55329;DHT22;41205;44.264;19.884;2023-08-08T05:16:08;461.60;2380.80
55329;DHT22;41205;44.264;19.884;2023-08-08T05:18:34;461.70;2380.80
55329;DHT22;41205;44.264;19.884;2023-08-08T05:21:00;486.50;2380.80
55329;DHT22;41205;44.264;19.884;2023-08-08T05:23:25;486.70;2380.80
55329;DHT22;41205;44.264;19.884;2023-08-08T05:25:51;487.10;2380.80
55329;DHT22;41205;44.264;19.884;2023-08-08T05:28:17;537.70;2406.40
55329;DHT22;41205;44.264;19.884;2023-08-08T05:30:42;537.80;2406.40
55329;DHT22;41205;44.264;19.884;2023-08-08T05:33:08;538.50;2406.40
55329;DHT22;41205;44.264;19.884;2023-08-08T05:35:34;691.60;2022.40
55329;DHT22;41205;44.264;19.884;2023-08-08T05:37:59;768.20;1740.80
55329;DHT22;41205;44.264;19.884;2023-08-08T05:40:25;794.00;1638.40
55329;DHT22;41205;44.264;19.884;2023-08-08T05:42:51;819.20;1587.20
55329;DHT22;41205;44.264;19.884;2023-08-08T05:45:16;870.50;1459.20
55329;DHT22;41205;44.264;19.884;2023-08-08T05:47:42;870.50;1408.00
55329;DHT22;41205;44.264;19.884;2023-08-08T05:50:10;870.80;1408.00
55329;DHT22;41205;44.264;19.884;2023-08-08T05:52:35;921.80;1331.20
55329;DHT22;41205;44.264;19.884;2023-08-08T05:55:01;870.60;1408.00
55329;DHT22;41205;44.264;19.884;2023-08-08T05:57:27;819.60;1484.80
55329;DHT22;41205;44.264;19.884;2023-08-08T05:59:52;921.80;1331.20
55329;DHT22;41205;44.264;19.884;2023-08-08T06:02:18;794.00;1484.80
55329;DHT22;41205;44.264;19.884;2023-08-08T06:04:44;717.70;1612.80
55329;DHT22;41205;44.264;19.884;2023-08-08T06:07:10;691.30;1715.20
55329;DHT22;41205;44.264;19.884;2023-08-08T06:09:37;640.70;1766.40
55329;DHT22;41205;44.264;19.884;2023-08-08T06:12:06;614.90;1843.20
55329;DHT22;41205;44.264;19.884;2023-08-08T06:14:31;614.50;1894.40
55329;DHT22;41205;44.264;19.884;2023-08-08T06:16:57;589.50;1945.60
55329;DHT22;41205;44.264;19.884;2023-08-08T06:19:23;588.90;1971.20
55329;DHT22;41205;44.264;19.884;2023-08-08T06:21:49;563.90;1996.80
55329;DHT22;41205;44.264;19.884;2023-08-08T06:24:15;563.60;2048.00
55329;DHT22;41205;44.264;19.884;2023-08-08T06:26:41;563.50;2022.40
55329;DHT22;41205;44.264;19.884;2023-08-08T06:29:07;563.60;2073.60
55329;DHT22;41205;44.264;19.884;2023-08-08T06:31:32;563.30;2124.80
55329;DHT22;41205;44.264;19.884;2023-08-08T06:33:58;563.40;2099.20
55329;DHT22;41205;44.264;19.884;2023-08-08T06:36:24;563.40;2048.00
55329;DHT22;41205;44.264;19.884;2023-08-08T06:38:49;563.50;2048.00
55329;DHT22;41205;44.264;19.884;2023-08-08T06:41:15;563.60;2073.60
55329;DHT22;41205;44.264;19.884;2023-08-08T06:43:41;563.50;2099.20
55329;DHT22;41205;44.264;19.884;2023-08-08T06:46:06;563.70;2048.00
55329;DHT22;41205;44.264;19.884;2023-08-08T06:48:32;564.10;2022.40
55329;DHT22;41205;44.264;19.884;2023-08-08T06:50:58;589.30;1996.80
55329;DHT22;41205;44.264;19.884;2023-08-08T06:53:23;589.50;1945.60
55329;DHT22;41205;44.264;19.884;2023-08-08T06:55:49;589.50;1945.60
55329;DHT22;41205;44.264;19.884;2023-08-08T06:58:15;589.70;1920.00
55329;DHT22;41205;44.264;19.884;2023-08-08T07:00:40;615.00;1868.80
55329;DHT22;41205;44.264;19.884;2023-08-08T07:03:06;615.10;1894.40
55329;DHT22;41205;44.264;19.884;2023-08-08T07:05:32;640.40;1817.60
55329;DHT22;41205;44.264;19.884;2023-08-08T07:07:57;666.20;1766.40
55329;DHT22;41205;44.264;19.884;2023-08-08T07:10:23;691.40;1715.20
55329;DHT22;41205;44.264;19.884;2023-08-08T07:12:49;691.70;1689.60
55329;DHT22;41205;44.264;19.884;2023-08-08T07:15:15;794.10;1536.00
55329;DHT22;41205;44.264;19.884;2023-08-08T07:17:40;896.30;1356.80
55329;DHT22;41205;44.264;19.884;2023-08-08T07:20:06;972.90;1254.40
55329;DHT22;41205;44.264;19.884;2023-08-08T07:22:33;998.60;1203.20
55329;DHT22;41205;44.264;19.884;2023-08-08T07:24:59;998.50;1177.60
55329;DHT22;41205;44.264;19.884;2023-08-08T07:27:26;1024.50;1126.40
55329;DHT22;41205;44.264;19.884;2023-08-08T07:29:52;1024.30;1126.40
55329;DHT22;41205;44.264;19.884;2023-08-08T07:32:18;1024.20;1100.80
55329;DHT22;41205;44.264;19.884;2023-08-08T07:34:44;998.60;1100.80
55329;DHT22;41205;44.264;19.884;2023-08-08T07:37:09;896.90;1152.00
55329;DHT22;41205;44.264;19.884;2023-08-08T07:39:36;845.30;1280.00
55329;DHT22;41205;44.264;19.884;2023-08-08T07:42:02;794.00;1382.40
55329;DHT22;41205;44.264;19.884;2023-08-08T07:44:27;768.30;1382.40
55329;DHT22;41205;44.264;19.884;2023-08-08T07:46:53;768.80;1356.80
55329;DHT22;41205;44.264;19.884;2023-08-08T07:49:19;793.80;1356.80
55329;DHT22;41205;44.264;19.884;2023-08-08T07:51:45;793.60;1382.40
55329;DHT22;41205;44.264;19.884;2023-08-08T07:54:10;768.10;1408.00
55329;DHT22;41205;44.264;19.884;2023-08-08T07:56:36;871.30;1228.80
55329;DHT22;41205;44.264;19.884;2023-08-08T07:59:02;870.60;1254.40
55329;DHT22;41205;44.264;19.884;2023-08-08T08:01:29;819.30;1331.20
55329;DHT22;41205;44.264;19.884;2023-08-08T08:03:55;768.00;1408.00
55329;DHT22;41205;44.264;19.884;2023-08-08T08:06:20;742.40;1459.20
55329;DHT22;41205;44.264;19.884;2023-08-08T08:08:46;742.40;1484.80
55329;DHT22;41205;44.264;19.884;2023-08-08T08:11:12;716.90;1536.00
55329;DHT22;41205;44.264;19.884;2023-08-08T08:13:39;743.00;1459.20
55329;DHT22;41205;44.264;19.884;2023-08-08T08:16:06;794.50;1356.80
55329;DHT22;41205;44.264;19.884;2023-08-08T08:18:31;870.50;1254.40
55329;DHT22;41205;44.264;19.884;2023-08-08T08:20:58;870.50;1280.00
55329;DHT22;41205;44.264;19.884;2023-08-08T08:23:24;922.00;1203.20
55329;DHT22;41205;44.264;19.884;2023-08-08T08:25:50;922.00;1177.60
55329;DHT22;41205;44.264;19.884;2023-08-08T08:28:16;845.30;1305.60
55329;DHT22;41205;44.264;19.884;2023-08-08T08:30:42;921.80;1203.20
55329;DHT22;41205;44.264;19.884;2023-08-08T08:33:08;870.70;1228.80
55329;DHT22;41205;44.264;19.884;2023-08-08T08:35:37;819.80;1331.20
55329;DHT22;41205;44.264;19.884;2023-08-08T08:38:03;768.40;1408.00
55329;DHT22;41205;44.264;19.884;2023-08-08T08:40:31;742.40;1510.40
55329;DHT22;41205;44.264;19.884;2023-08-08T08:42:59;691.90;1484.80
55329;DHT22;41205;44.264;19.884;2023-08-08T08:45:26;691.70;1484.80
55329;DHT22;41205;44.264;19.884;2023-08-08T08:47:55;691.20;1484.80
55329;DHT22;41205;44.264;19.884;2023-08-08T08:50:22;666.30;1484.80
55329;DHT22;41205;44.264;19.884;2023-08-08T08:52:48;691.20;1536.00
55329;DHT22;41205;44.264;19.884;2023-08-08T08:55:14;666.00;1587.20
55329;DHT22;41205;44.264;19.884;2023-08-08T08:57:40;640.90;1561.60
55329;DHT22;41205;44.264;19.884;2023-08-08T09:00:07;665.90;1612.80
55329;DHT22;41205;44.264;19.884;2023-08-08T09:02:33;666.00;1587.20
55329;DHT22;41205;44.264;19.884;2023-08-08T09:05:00;665.70;1561.60
55329;DHT22;41205;44.264;19.884;2023-08-08T09:07:29;665.90;1664.00
55329;DHT22;41205;44.264;19.884;2023-08-08T09:09:56;665.80;1638.40
55329;DHT22;41205;44.264;19.884;2023-08-08T09:12:22;665.80;1638.40
55329;DHT22;41205;44.264;19.884;2023-08-08T09:14:54;665.80;1638.40
55329;DHT22;41205;44.264;19.884;2023-08-08T09:17:21;665.90;1638.40
55329;DHT22;41205;44.264;19.884;2023-08-08T09:19:47;665.90;1612.80
55329;DHT22;41205;44.264;19.884;2023-08-08T09:22:13;665.90;1612.80
55329;DHT22;41205;44.264;19.884;2023-08-08T09:24:42;665.70;1612.80
55329;DHT22;41205;44.264;19.884;2023-08-08T09:27:09;640.60;1612.80
55329;DHT22;41205;44.264;19.884;2023-08-08T09:29:35;640.10;1612.80
55329;DHT22;41205;44.264;19.884;2023-08-08T09:32:05;615.00;1612.80
55329;DHT22;41205;44.264;19.884;2023-08-08T09:34:31;615.20;1638.40
55329;DHT22;41205;44.264;19.884;2023-08-08T09:36:57;640.00;1664.00
55329;DHT22;41205;44.264;19.884;2023-08-08T09:39:23;640.10;1638.40
55329;DHT22;41205;44.264;19.884;2023-08-08T09:41:49;640.00;1638.40
55329;DHT22;41205;44.264;19.884;2023-08-08T09:44:15;640.40;1612.80
55329;DHT22;41205;44.264;19.884;2023-08-08T09:46:42;640.40;1587.20
55329;DHT22;41205;44.264;19.884;2023-08-08T09:49:10;640.30;1587.20
55329;DHT22;41205;44.264;19.884;2023-08-08T09:51:36;640.70;1587.20
55329;DHT22;41205;44.264;19.884;2023-08-08T09:54:04;665.70;1612.80
55329;DHT22;41205;44.264;19.884;2023-08-08T09:56:33;665.60;1638.40
55329;DHT22;41205;44.264;19.884;2023-08-08T09:59:00;640.50;1638.40
55329;DHT22;41205;44.264;19.884;2023-08-08T10:01:27;640.20;1664.00
55329;DHT22;41205;44.264;19.884;2023-08-08T10:03:53;615.30;1689.60
55329;DHT22;41205;44.264;19.884;2023-08-08T10:06:18;615.30;1689.60
55329;DHT22;41205;44.264;19.884;2023-08-08T10:08:45;614.90;1689.60
55329;DHT22;41205;44.264;19.884;2023-08-08T10:11:12;614.50;1740.80
55329;DHT22;41205;44.264;19.884;2023-08-08T10:13:46;614.70;1740.80
55329;DHT22;41205;44.264;19.884;2023-08-08T10:16:12;615.00;1715.20
55329;DHT22;41205;44.264;19.884;2023-08-08T10:18:40;615.30;1689.60
55329;DHT22;41205;44.264;19.884;2023-08-08T10:21:06;640.50;1715.20
55329;DHT22;41205;44.264;19.884;2023-08-08T10:23:36;640.40;1689.60
55329;DHT22;41205;44.264;19.884;2023-08-08T10:26:03;640.20;1638.40
55329;DHT22;41205;44.264;19.884;2023-08-08T10:28:32;640.50;1638.40
55329;DHT22;41205;44.264;19.884;2023-08-08T10:30:59;665.60;1689.60
55329;DHT22;41205;44.264;19.884;2023-08-08T10:33:41;665.70;1766.40
55329;DHT22;41205;44.264;19.884;2023-08-08T10:36:07;666.00;1715.20
55329;DHT22;41205;44.264;19.884;2023-08-08T10:38:47;666.00;1689.60
55329;DHT22;41205;44.264;19.884;2023-08-08T10:41:17;666.00;1664.00
55329;DHT22;41205;44.264;19.884;2023-08-08T10:43:57;665.90;1587.20
55329;DHT22;41205;44.264;19.884;2023-08-08T10:46:25;665.70;1612.80
55329;DHT22;41205;44.264;19.884;2023-08-08T10:49:01;665.80;1612.80
55329;DHT22;41205;44.264;19.884;2023-08-08T10:51:45;640.90;1612.80
55329;DHT22;41205;44.264;19.884;2023-08-08T10:54:14;640.60;1638.40
55329;DHT22;41205;44.264;19.884;2023-08-08T10:56:41;615.20;1638.40
55329;DHT22;41205;44.264;19.884;2023-08-08T10:59:17;614.80;1689.60
55329;DHT22;41205;44.264;19.884;2023-08-08T11:01:46;614.60;1715.20
55329;DHT22;41205;44.264;19.884;2023-08-08T11:04:12;614.50;1740.80
55329;DHT22;41205;44.264;19.884;2023-08-08T11:06:38;614.60;1766.40
55329;DHT22;41205;44.264;19.884;2023-08-08T11:09:08;614.50;1715.20
55329;DHT22;41205;44.264;19.884;2023-08-08T11:11:41;614.70;1740.80
55329;DHT22;41205;44.264;19.884;2023-08-08T11:14:11;614.90;1740.80
55329;DHT22;41205;44.264;19.884;2023-08-08T11:16:37;615.30;1715.20
55329;DHT22;41205;44.264;19.884;2023-08-08T11:19:04;640.10;1689.60
55329;DHT22;41205;44.264;19.884;2023-08-08T11:21:30;640.30;1689.60
55329;DHT22;41205;44.264;19.884;2023-08-08T11:23:58;640.50;1715.20
55329;DHT22;41205;44.264;19.884;2023-08-08T11:26:24;640.50;1689.60
55329;DHT22;41205;44.264;19.884;2023-08-08T11:28:53;640.40;1664.00
55329;DHT22;41205;44.264;19.884;2023-08-08T11:31:20;640.20;1664.00
55329;DHT22;41205;44.264;19.884;2023-08-08T11:33:48;640.60;1638.40
55329;DHT22;41205;44.264;19.884;2023-08-08T11:36:16;640.40;1612.80
55329;DHT22;41205;44.264;19.884;2023-08-08T11:38:42;640.40;1612.80
55329;DHT22;41205;44.264;19.884;2023-08-08T11:41:13;640.70;1587.20
55329;DHT22;41205;44.264;19.884;2023-08-08T11:43:40;666.50;1587.20
55329;DHT22;41205;44.264;19.884;2023-08-08T11:46:13;666.40;1689.60
55329;DHT22;41205;44.264;19.884;2023-08-08T11:48:39;691.20;1612.80
55329;DHT22;41205;44.264;19.884;2023-08-08T11:51:05;691.20;1612.80
55329;DHT22;41205;44.264;19.884;2023-08-08T11:53:32;691.20;1664.00
55329;DHT22;41205;44.264;19.884;2023-08-08T11:55:59;691.20;1664.00
55329;DHT22;41205;44.264;19.884;2023-08-08T11:58:26;666.10;1664.00
55329;DHT22;41205;44.264;19.884;2023-08-08T12:00:52;665.90;1638.40
55329;DHT22;41205;44.264;19.884;2023-08-08T12:03:20;665.60;1664.00
55329;DHT22;41205;44.264;19.884;2023-08-08T12:05:46;640.70;1664.00
55329;DHT22;41205;44.264;19.884;2023-08-08T12:08:12;640.40;1689.60
55329;DHT22;41205;44.264;19.884;2023-08-08T12:10:38;640.00;1715.20
55329;DHT22;41205;44.264;19.884;2023-08-08T12:13:04;615.00;1740.80
55329;DHT22;41205;44.264;19.884;2023-08-08T12:15:34;614.80;1766.40
55329;DHT22;41205;44.264;19.884;2023-08-08T12:18:04;614.80;1766.40
55329;DHT22;41205;44.264;19.884;2023-08-08T12:20:31;614.80;1792.00
55329;DHT22;41205;44.264;19.884;2023-08-08T12:22:57;614.70;1766.40
55329;DHT22;41205;44.264;19.884;2023-08-08T12:25:23;614.80;1792.00
55329;DHT22;41205;44.264;19.884;2023-08-08T12:27:49;614.80;1817.60
55329;DHT22;41205;44.264;19.884;2023-08-08T12:30:15;614.90;1817.60
55329;DHT22;41205;44.264;19.884;2023-08-08T12:32:40;614.80;1817.60
55329;DHT22;41205;44.264;19.884;2023-08-08T12:35:06;614.80;1817.60
55329;DHT22;41205;44.264;19.884;2023-08-08T12:37:33;614.80;1792.00
55329;DHT22;41205;44.264;19.884;2023-08-08T12:39:58;614.90;1817.60
55329;DHT22;41205;44.264;19.884;2023-08-08T12:42:25;614.80;1817.60
55329;DHT22;41205;44.264;19.884;2023-08-08T12:44:50;614.80;1817.60
55329;DHT22;41205;44.264;19.884;2023-08-08T12:47:19;614.80;1817.60
55329;DHT22;41205;44.264;19.884;2023-08-08T12:49:46;614.80;1817.60
55329;DHT22;41205;44.264;19.884;2023-08-08T12:52:12;614.60;1868.80
55329;DHT22;41205;44.264;19.884;2023-08-08T12:54:37;614.50;1843.20
55329;DHT22;41205;44.264;19.884;2023-08-08T12:57:03;614.50;1894.40
55329;DHT22;41205;44.264;19.884;2023-08-08T12:59:29;614.40;1817.60
55329;DHT22;41205;44.264;19.884;2023-08-08T13:01:55;614.50;1868.80
55329;DHT22;41205;44.264;19.884;2023-08-08T13:04:21;614.50;1868.80
55329;DHT22;41205;44.264;19.884;2023-08-08T13:06:48;614.60;1843.20
55329;DHT22;41205;44.264;19.884;2023-08-08T13:09:14;614.70;1792.00
55329;DHT22;41205;44.264;19.884;2023-08-08T13:11:41;614.80;1817.60
55329;DHT22;41205;44.264;19.884;2023-08-08T13:14:06;614.50;1766.40
55329;DHT22;41205;44.264;19.884;2023-08-08T13:16:32;614.40;1792.00
55329;DHT22;41205;44.264;19.884;2023-08-08T13:18:58;614.40;1894.40
55329;DHT22;41205;44.264;19.884;2023-08-08T13:21:24;614.50;1894.40
55329;DHT22;41205;44.264;19.884;2023-08-08T13:23:49;614.60;1843.20
55329;DHT22;41205;44.264;19.884;2023-08-08T13:26:15;614.50;1766.40
55329;DHT22;41205;44.264;19.884;2023-08-08T13:28:41;614.40;1792.00
55329;DHT22;41205;44.264;19.884;2023-08-08T13:31:08;614.50;1868.80
55329;DHT22;41205;44.264;19.884;2023-08-08T13:33:34;614.60;1868.80
55329;DHT22;41205;44.264;19.884;2023-08-08T13:36:00;614.60;1920.00
55329;DHT22;41205;44.264;19.884;2023-08-08T13:38:26;614.50;1920.00
55329;DHT22;41205;44.264;19.884;2023-08-08T13:40:52;614.50;1920.00
55329;DHT22;41205;44.264;19.884;2023-08-08T13:43:19;614.50;1920.00
55329;DHT22;41205;44.264;19.884;2023-08-08T13:45:45;614.40;1868.80
55329;DHT22;41205;44.264;19.884;2023-08-08T13:48:11;614.50;1868.80
55329;DHT22;41205;44.264;19.884;2023-08-08T13:50:36;614.60;1817.60
55329;DHT22;41205;44.264;19.884;2023-08-08T13:53:03;614.40;1766.40
55329;DHT22;41205;44.264;19.884;2023-08-08T13:55:29;589.60;1740.80
55329;DHT22;41205;44.264;19.884;2023-08-08T13:57:55;589.50;1792.00
55329;DHT22;41205;44.264;19.884;2023-08-08T14:00:21;589.60;1868.80
55329;DHT22;41205;44.264;19.884;2023-08-08T14:02:47;589.70;1868.80
55329;DHT22;41205;44.264;19.884;2023-08-08T14:05:13;614.50;1843.20
55329;DHT22;41205;44.264;19.884;2023-08-08T14:07:39;614.40;1843.20
55329;DHT22;41205;44.264;19.884;2023-08-08T14:10:05;614.40;1817.60
55329;DHT22;41205;44.264;19.884;2023-08-08T14:12:31;614.50;1868.80
55329;DHT22;41205;44.264;19.884;2023-08-08T14:14:57;614.50;1766.40
55329;DHT22;41205;44.264;19.884;2023-08-08T14:17:22;614.40;1817.60
55329;DHT22;41205;44.264;19.884;2023-08-08T14:19:48;614.50;1792.00
55329;DHT22;41205;44.264;19.884;2023-08-08T14:22:14;614.50;1766.40
55329;DHT22;41205;44.264;19.884;2023-08-08T14:24:43;614.70;1766.40
55329;DHT22;41205;44.264;19.884;2023-08-08T14:27:09;614.50;1715.20
55329;DHT22;41205;44.264;19.884;2023-08-08T14:29:35;614.60;1766.40
55329;DHT22;41205;44.264;19.884;2023-08-08T14:32:01;614.60;1792.00